sensor_id;sensor_type;location;lat;lon;timestamp;temperature;humidity
14555;DHT22;7364;50.870;4.722;2023-03-03T00:01:44;4.10;99.90
14555;DHT22;7364;50.870;4.722;2023-03-03T00:04:11;4.20;99.90
14555;DHT22;7364;50.870;4.722;2023-03-03T00:06:39;4.20;99.90
14555;DHT22;7364;50.870;4.722;2023-03-03T00:09:06;4.20;99.90
14555;DHT22;7364;50.870;4.722;2023-03-03T00:11:33;4.20;99.90
14555;DHT22;7364;50.870;4.722;2023-03-03T00:14:02;4.10;99.90
14555;DHT22;7364;50.870;4.722;2023-03-03T00:16:39;4.10;99.90
14555;DHT22;7364;50.870;4.722;2023-03-03T00:19:16;4.00;99.90
14555;DHT22;7364;50.870;4.722;2023-03-03T00:21:45;4.00;99.90
14555;DHT22;7364;50.870;4.722;2023-03-03T00:24:19;4.00;99.90
14555;DHT22;7364;50.870;4.722;2023-03-03T00:26:47;4.00;99.90
14555;DHT22;7364;50.870;4.722;2023-03-03T00:29:40;4.00;99.90
14555;DHT22;7364;50.870;4.722;2023-03-03T00:32:21;4.00;99.90
14555;DHT22;7364;50.870;4.722;2023-03-03T00:34:50;3.90;99.90
14555;DHT22;7364;50.870;4.722;2023-03-03T00:37:29;3.80;99.90
14555;DHT22;7364;50.870;4.722;2023-03-03T00:40:20;3.80;99.90
14555;DHT22;7364;50.870;4.722;2023-03-03T00:42:51;3.80;99.90
14555;DHT22;7364;50.870;4.722;2023-03-03T00:45:39;3.70;99.90
14555;DHT22;7364;50.870;4.722;2023-03-03T00:48:24;3.80;99.90
14555;DHT22;7364;50.870;4.722;2023-03-03T00:50:56;3.70;99.90
14555;DHT22;7364;50.870;4.722;2023-03-03T00:53:25;3.70;99.90
14555;DHT22;7364;50.870;4.722;2023-03-03T00:55:53;3.80;99.90
14555;DHT22;7364;50.870;4.722;2023-03-03T00:58:21;3.70;99.90
14555;DHT22;7364;50.870;4.722;2023-03-03T01:00:52;3.70;99.90
14555;DHT22;7364;50.870;4.722;2023-03-03T01:03:24;3.70;99.90
14555;DHT22;7364;50.870;4.722;2023-03-03T01:05:53;3.70;99.90
14555;DHT22;7364;50.870;4.722;2023-03-03T01:08:21;3.70;99.90
14555;DHT22;7364;50.870;4.722;2023-03-03T01:10:50;3.60;99.90
14555;DHT22;7364;50.870;4.722;2023-03-03T01:13:19;3.60;99.90
14555;DHT22;7364;50.870;4.722;2023-03-03T01:15:46;3.60;99.90
14555;DHT22;7364;50.870;4.722;2023-03-03T01:18:16;3.50;99.90
14555;DHT22;7364;50.870;4.722;2023-03-03T01:20:43;3.40;99.90
14555;DHT22;7364;50.870;4.722;2023-03-03T01:23:11;3.30;99.90
14555;DHT22;7364;50.870;4.722;2023-03-03T01:25:38;3.30;99.90
14555;DHT22;7364;50.870;4.722;2023-03-03T01:28:06;3.20;99.90
14555;DHT22;7364;50.870;4.722;2023-03-03T01:30:33;3.30;99.90
14555;DHT22;7364;50.870;4.722;2023-03-03T01:33:01;3.30;99.90
14555;DHT22;7364;50.870;4.722;2023-03-03T01:35:31;3.30;99.90
14555;DHT22;7364;50.870;4.722;2023-03-03T01:37:58;3.30;99.90
14555;DHT22;7364;50.870;4.722;2023-03-03T01:40:28;3.20;99.90
14555;DHT22;7364;50.870;4.722;2023-03-03T01:42:58;3.30;99.90
14555;DHT22;7364;50.870;4.722;2023-03-03T01:45:28;3.30;99.90
14555;DHT22;7364;50.870;4.722;2023-03-03T01:48:00;3.30;99.90
14555;DHT22;7364;50.870;4.722;2023-03-03T01:50:39;3.40;99.90
14555;DHT22;7364;50.870;4.722;2023-03-03T01:53:13;3.30;99.90
14555;DHT22;7364;50.870;4.722;2023-03-03T01:55:43;3.20;99.90
14555;DHT22;7364;50.870;4.722;2023-03-03T01:58:18;3.10;99.90
14555;DHT22;7364;50.870;4.722;2023-03-03T02:00:50;3.10;99.90
14555;DHT22;7364;50.870;4.722;2023-03-03T02:03:20;3.20;99.90
14555;DHT22;7364;50.870;4.722;2023-03-03T02:05:53;3.20;99.90
14555;DHT22;7364;50.870;4.722;2023-03-03T02:08:26;3.30;99.90
14555;DHT22;7364;50.870;4.722;2023-03-03T02:10:56;3.20;99.90
14555;DHT22;7364;50.870;4.722;2023-03-03T02:13:24;3.10;99.90
14555;DHT22;7364;50.870;4.722;2023-03-03T02:15:51;3.10;99.90
14555;DHT22;7364;50.870;4.722;2023-03-03T02:18:19;3.10;99.90
14555;DHT22;7364;50.870;4.722;2023-03-03T02:20:56;3.10;99.90
14555;DHT22;7364;50.870;4.722;2023-03-03T02:23:29;3.00;99.90
14555;DHT22;7364;50.870;4.722;2023-03-03T02:26:05;3.00;99.90
14555;DHT22;7364;50.870;4.722;2023-03-03T02:28:34;3.00;99.90
14555;DHT22;7364;50.870;4.722;2023-03-03T02:31:04;3.10;99.90
14555;DHT22;7364;50.870;4.722;2023-03-03T02:33:32;3.20;99.90
14555;DHT22;7364;50.870;4.722;2023-03-03T02:35:59;3.20;99.90
14555;DHT22;7364;50.870;4.722;2023-03-03T02:38:29;3.20;99.90
14555;DHT22;7364;50.870;4.722;2023-03-03T02:41:06;3.10;99.90
14555;DHT22;7364;50.870;4.722;2023-03-03T02:43:40;3.10;99.90
14555;DHT22;7364;50.870;4.722;2023-03-03T02:46:09;3.00;99.90
14555;DHT22;7364;50.870;4.722;2023-03-03T02:48:38;3.10;99.90
14555;DHT22;7364;50.870;4.722;2023-03-03T02:51:05;3.10;99.90
14555;DHT22;7364;50.870;4.722;2023-03-03T02:53:32;3.00;99.90
14555;DHT22;7364;50.870;4.722;2023-03-03T02:56:00;2.90;99.90
14555;DHT22;7364;50.870;4.722;2023-03-03T02:58:30;3.00;99.90
14555;DHT22;7364;50.870;4.722;2023-03-03T03:00:57;3.00;99.90
14555;DHT22;7364;50.870;4.722;2023-03-03T03:03:25;3.00;99.90
14555;DHT22;7364;50.870;4.722;2023-03-03T03:05:53;3.00;99.90
14555;DHT22;7364;50.870;4.722;2023-03-03T03:08:20;3.00;99.90
14555;DHT22;7364;50.870;4.722;2023-03-03T03:10:49;3.00;99.90
14555;DHT22;7364;50.870;4.722;2023-03-03T03:13:16;3.00;99.90
14555;DHT22;7364;50.870;4.722;2023-03-03T03:15:46;3.00;99.90
14555;DHT22;7364;50.870;4.722;2023-03-03T03:18:13;3.00;99.90
14555;DHT22;7364;50.870;4.722;2023-03-03T03:20:41;3.10;99.90
14555;DHT22;7364;50.870;4.722;2023-03-03T03:23:10;3.20;99.90
14555;DHT22;7364;50.870;4.722;2023-03-03T03:25:37;3.30;99.90
14555;DHT22;7364;50.870;4.722;2023-03-03T03:28:10;3.50;99.90
14555;DHT22;7364;50.870;4.722;2023-03-03T03:30:38;3.80;99.90
14555;DHT22;7364;50.870;4.722;2023-03-03T03:33:07;4.00;99.90
14555;DHT22;7364;50.870;4.722;2023-03-03T03:35:35;4.10;99.90
14555;DHT22;7364;50.870;4.722;2023-03-03T03:38:03;4.00;99.90
14555;DHT22;7364;50.870;4.722;2023-03-03T03:40:32;4.20;99.90
14555;DHT22;7364;50.870;4.722;2023-03-03T03:42:59;4.00;99.90
14555;DHT22;7364;50.870;4.722;2023-03-03T03:45:26;3.70;99.90
14555;DHT22;7364;50.870;4.722;2023-03-03T03:47:54;3.70;99.90
14555;DHT22;7364;50.870;4.722;2023-03-03T03:50:24;4.00;99.90
14555;DHT22;7364;50.870;4.722;2023-03-03T03:52:51;3.90;99.90
14555;DHT22;7364;50.870;4.722;2023-03-03T03:55:18;3.60;99.90
14555;DHT22;7364;50.870;4.722;2023-03-03T03:57:47;3.40;99.90
14555;DHT22;7364;50.870;4.722;2023-03-03T04:00:15;3.50;99.90
14555;DHT22;7364;50.870;4.722;2023-03-03T04:02:43;3.60;99.90
14555;DHT22;7364;50.870;4.722;2023-03-03T04:05:10;3.70;99.90
14555;DHT22;7364;50.870;4.722;2023-03-03T04:07:39;3.70;99.90
14555;DHT22;7364;50.870;4.722;2023-03-03T04:10:07;3.70;99.90
14555;DHT22;7364;50.870;4.722;2023-03-03T04:12:35;3.50;99.90
14555;DHT22;7364;50.870;4.722;2023-03-03T04:15:06;3.60;99.90
14555;DHT22;7364;50.870;4.722;2023-03-03T04:17:33;3.70;99.90
14555;DHT22;7364;50.870;4.722;2023-03-03T04:20:01;3.60;99.90
14555;DHT22;7364;50.870;4.722;2023-03-03T04:22:29;3.40;99.90
14555;DHT22;7364;50.870;4.722;2023-03-03T04:25:00;3.30;99.90
14555;DHT22;7364;50.870;4.722;2023-03-03T04:27:29;3.30;99.90
14555;DHT22;7364;50.870;4.722;2023-03-03T04:29:57;3.30;99.90
14555;DHT22;7364;50.870;4.722;2023-03-03T04:32:24;3.30;99.90
14555;DHT22;7364;50.870;4.722;2023-03-03T04:34:52;3.20;99.90
14555;DHT22;7364;50.870;4.722;2023-03-03T04:37:19;3.20;99.90
14555;DHT22;7364;50.870;4.722;2023-03-03T04:39:47;3.40;99.90
14555;DHT22;7364;50.870;4.722;2023-03-03T04:42:16;3.60;99.90
14555;DHT22;7364;50.870;4.722;2023-03-03T04:44:44;3.70;99.90
14555;DHT22;7364;50.870;4.722;2023-03-03T04:47:14;3.70;99.90
14555;DHT22;7364;50.870;4.722;2023-03-03T04:49:42;4.10;99.90
14555;DHT22;7364;50.870;4.722;2023-03-03T04:52:09;4.20;99.90
14555;DHT22;7364;50.870;4.722;2023-03-03T04:54:36;4.20;99.90
14555;DHT22;7364;50.870;4.722;2023-03-03T04:57:04;4.30;99.90
14555;DHT22;7364;50.870;4.722;2023-03-03T04:59:34;4.30;99.90
14555;DHT22;7364;50.870;4.722;2023-03-03T05:02:01;4.20;99.90
14555;DHT22;7364;50.870;4.722;2023-03-03T05:04:30;3.80;99.90
14555;DHT22;7364;50.870;4.722;2023-03-03T05:06:57;3.60;99.90
14555;DHT22;7364;50.870;4.722;2023-03-03T05:09:25;3.90;99.90
14555;DHT22;7364;50.870;4.722;2023-03-03T05:11:52;4.00;99.90
14555;DHT22;7364;50.870;4.722;2023-03-03T05:14:19;3.90;99.90
14555;DHT22;7364;50.870;4.722;2023-03-03T05:16:48;3.90;99.90
14555;DHT22;7364;50.870;4.722;2023-03-03T05:19:15;4.20;99.90
14555;DHT22;7364;50.870;4.722;2023-03-03T05:21:42;4.10;99.90
14555;DHT22;7364;50.870;4.722;2023-03-03T05:24:11;4.00;99.90
14555;DHT22;7364;50.870;4.722;2023-03-03T05:26:39;4.20;99.90
14555;DHT22;7364;50.870;4.722;2023-03-03T05:29:07;4.00;99.90
14555;DHT22;7364;50.870;4.722;2023-03-03T05:31:35;3.80;99.90
14555;DHT22;7364;50.870;4.722;2023-03-03T05:34:04;3.60;99.90
14555;DHT22;7364;50.870;4.722;2023-03-03T05:36:32;3.50;99.90
14555;DHT22;7364;50.870;4.722;2023-03-03T05:38:59;3.40;99.90
14555;DHT22;7364;50.870;4.722;2023-03-03T05:41:26;3.20;99.90
14555;DHT22;7364;50.870;4.722;2023-03-03T05:43:54;3.20;99.90
14555;DHT22;7364;50.870;4.722;2023-03-03T05:46:21;3.20;99.90
14555;DHT22;7364;50.870;4.722;2023-03-03T05:48:48;3.20;99.90
14555;DHT22;7364;50.870;4.722;2023-03-03T05:51:19;3.40;99.90
14555;DHT22;7364;50.870;4.722;2023-03-03T05:53:46;3.50;99.90
14555;DHT22;7364;50.870;4.722;2023-03-03T05:56:16;3.70;99.90
14555;DHT22;7364;50.870;4.722;2023-03-03T05:58:43;3.80;99.90
14555;DHT22;7364;50.870;4.722;2023-03-03T06:01:11;3.50;99.90
14555;DHT22;7364;50.870;4.722;2023-03-03T06:03:38;3.20;99.90
14555;DHT22;7364;50.870;4.722;2023-03-03T06:06:06;3.20;99.90
14555;DHT22;7364;50.870;4.722;2023-03-03T06:08:35;3.20;99.90
14555;DHT22;7364;50.870;4.722;2023-03-03T06:11:03;3.40;99.90
14555;DHT22;7364;50.870;4.722;2023-03-03T06:13:30;3.80;99.90
14555;DHT22;7364;50.870;4.722;2023-03-03T06:15:58;3.90;99.90
14555;DHT22;7364;50.870;4.722;2023-03-03T06:18:25;4.00;99.90
14555;DHT22;7364;50.870;4.722;2023-03-03T06:20:52;4.00;99.90
14555;DHT22;7364;50.870;4.722;2023-03-03T06:23:20;4.10;99.90
14555;DHT22;7364;50.870;4.722;2023-03-03T06:25:49;4.20;99.90
14555;DHT22;7364;50.870;4.722;2023-03-03T06:28:17;4.10;99.90
14555;DHT22;7364;50.870;4.722;2023-03-03T06:30:45;3.80;99.90
14555;DHT22;7364;50.870;4.722;2023-03-03T06:33:12;3.80;99.90
14555;DHT22;7364;50.870;4.722;2023-03-03T06:35:40;4.00;99.90
14555;DHT22;7364;50.870;4.722;2023-03-03T06:38:07;4.20;99.90
14555;DHT22;7364;50.870;4.722;2023-03-03T06:40:36;4.40;99.90
14555;DHT22;7364;50.870;4.722;2023-03-03T06:43:05;4.40;99.90
14555;DHT22;7364;50.870;4.722;2023-03-03T06:45:32;4.40;99.90
14555;DHT22;7364;50.870;4.722;2023-03-03T06:47:59;4.40;99.90
14555;DHT22;7364;50.870;4.722;2023-03-03T06:50:26;4.30;99.90
14555;DHT22;7364;50.870;4.722;2023-03-03T06:53:00;4.20;99.90
14555;DHT22;7364;50.870;4.722;2023-03-03T06:55:30;3.90;99.90
14555;DHT22;7364;50.870;4.722;2023-03-03T06:57:58;4.00;99.90
14555;DHT22;7364;50.870;4.722;2023-03-03T07:00:28;4.10;99.90
14555;DHT22;7364;50.870;4.722;2023-03-03T07:02:59;3.80;99.90
14555;DHT22;7364;50.870;4.722;2023-03-03T07:05:27;3.70;99.90
14555;DHT22;7364;50.870;4.722;2023-03-03T07:07:55;3.50;99.90
14555;DHT22;7364;50.870;4.722;2023-03-03T07:10:23;3.60;99.90
14555;DHT22;7364;50.870;4.722;2023-03-03T07:12:51;3.80;99.90
14555;DHT22;7364;50.870;4.722;2023-03-03T07:15:21;3.80;99.90
14555;DHT22;7364;50.870;4.722;2023-03-03T07:17:54;3.70;99.90
14555;DHT22;7364;50.870;4.722;2023-03-03T07:20:29;3.90;99.90
14555;DHT22;7364;50.870;4.722;2023-03-03T07:22:59;4.10;99.90
14555;DHT22;7364;50.870;4.722;2023-03-03T07:25:31;4.10;99.90
14555;DHT22;7364;50.870;4.722;2023-03-03T07:28:14;3.80;99.90
14555;DHT22;7364;50.870;4.722;2023-03-03T07:30:45;3.30;99.90
14555;DHT22;7364;50.870;4.722;2023-03-03T07:33:23;3.20;99.90
14555;DHT22;7364;50.870;4.722;2023-03-03T07:35:52;3.40;99.90
14555;DHT22;7364;50.870;4.722;2023-03-03T07:38:26;3.60;99.90
14555;DHT22;7364;50.870;4.722;2023-03-03T07:40:57;3.60;99.90
14555;DHT22;7364;50.870;4.722;2023-03-03T07:43:34;3.70;99.90
14555;DHT22;7364;50.870;4.722;2023-03-03T07:46:19;4.00;99.90
14555;DHT22;7364;50.870;4.722;2023-03-03T07:48:50;4.00;99.90
14555;DHT22;7364;50.870;4.722;2023-03-03T07:51:21;3.70;99.90
14555;DHT22;7364;50.870;4.722;2023-03-03T07:53:56;4.00;99.90
14555;DHT22;7364;50.870;4.722;2023-03-03T07:56:29;4.00;99.90
14555;DHT22;7364;50.870;4.722;2023-03-03T07:59:07;4.10;99.90
14555;DHT22;7364;50.870;4.722;2023-03-03T08:01:43;4.30;99.90
14555;DHT22;7364;50.870;4.722;2023-03-03T08:04:22;4.60;99.90
14555;DHT22;7364;50.870;4.722;2023-03-03T08:06:52;4.60;99.90
14555;DHT22;7364;50.870;4.722;2023-03-03T08:09:36;4.70;99.90
14555;DHT22;7364;50.870;4.722;2023-03-03T08:12:30;4.70;99.90
14555;DHT22;7364;50.870;4.722;2023-03-03T08:15:19;4.90;99.90
14555;DHT22;7364;50.870;4.722;2023-03-03T08:17:46;4.70;99.90
14555;DHT22;7364;50.870;4.722;2023-03-03T08:23:20;4.40;99.90
14555;DHT22;7364;50.870;4.722;2023-03-03T08:25:49;4.20;99.90
14555;DHT22;7364;50.870;4.722;2023-03-03T08:28:17;4.20;99.90
14555;DHT22;7364;50.870;4.722;2023-03-03T08:30:45;3.60;99.90
14555;DHT22;7364;50.870;4.722;2023-03-03T08:33:13;3.70;99.90
14555;DHT22;7364;50.870;4.722;2023-03-03T08:35:41;3.80;99.90
14555;DHT22;7364;50.870;4.722;2023-03-03T08:38:09;3.60;99.90
14555;DHT22;7364;50.870;4.722;2023-03-03T08:40:39;3.90;99.90
14555;DHT22;7364;50.870;4.722;2023-03-03T08:43:06;3.70;99.90
14555;DHT22;7364;50.870;4.722;2023-03-03T08:45:34;3.50;99.90
14555;DHT22;7364;50.870;4.722;2023-03-03T08:48:01;3.40;99.90
14555;DHT22;7364;50.870;4.722;2023-03-03T08:50:29;3.90;99.90
14555;DHT22;7364;50.870;4.722;2023-03-03T08:52:57;4.10;99.90
14555;DHT22;7364;50.870;4.722;2023-03-03T08:55:24;4.40;99.90
14555;DHT22;7364;50.870;4.722;2023-03-03T08:57:53;4.40;99.90
14555;DHT22;7364;50.870;4.722;2023-03-03T09:00:20;4.80;99.90
14555;DHT22;7364;50.870;4.722;2023-03-03T09:02:49;4.70;99.90
14555;DHT22;7364;50.870;4.722;2023-03-03T09:05:17;4.50;99.90
14555;DHT22;7364;50.870;4.722;2023-03-03T09:07:45;4.00;99.90
14555;DHT22;7364;50.870;4.722;2023-03-03T09:10:17;3.90;99.90
14555;DHT22;7364;50.870;4.722;2023-03-03T09:12:46;3.90;99.90
14555;DHT22;7364;50.870;4.722;2023-03-03T09:15:20;3.70;99.90
14555;DHT22;7364;50.870;4.722;2023-03-03T09:17:49;3.70;99.90
14555;DHT22;7364;50.870;4.722;2023-03-03T09:20:29;3.80;99.90
14555;DHT22;7364;50.870;4.722;2023-03-03T09:22:58;4.00;99.90
14555;DHT22;7364;50.870;4.722;2023-03-03T09:25:31;4.00;99.90
14555;DHT22;7364;50.870;4.722;2023-03-03T09:28:00;4.30;99.90
14555;DHT22;7364;50.870;4.722;2023-03-03T09:30:39;4.50;99.90
14555;DHT22;7364;50.870;4.722;2023-03-03T09:33:26;4.40;99.90
14555;DHT22;7364;50.870;4.722;2023-03-03T09:36:03;4.40;99.90
14555;DHT22;7364;50.870;4.722;2023-03-03T09:38:42;4.40;99.90
14555;DHT22;7364;50.870;4.722;2023-03-03T09:44:21;4.80;99.90
14555;DHT22;7364;50.870;4.722;2023-03-03T09:47:03;4.50;99.90
14555;DHT22;7364;50.870;4.722;2023-03-03T09:49:34;4.40;99.90
14555;DHT22;7364;50.870;4.722;2023-03-03T09:52:09;4.60;99.90
14555;DHT22;7364;50.870;4.722;2023-03-03T09:54:55;4.90;99.90
14555;DHT22;7364;50.870;4.722;2023-03-03T09:57:29;4.70;99.90
14555;DHT22;7364;50.870;4.722;2023-03-03T10:00:11;4.50;99.90
14555;DHT22;7364;50.870;4.722;2023-03-03T10:02:54;4.50;99.90
14555;DHT22;7364;50.870;4.722;2023-03-03T10:05:33;4.90;99.90
14555;DHT22;7364;50.870;4.722;2023-03-03T10:08:15;5.40;99.90
14555;DHT22;7364;50.870;4.722;2023-03-03T10:10:53;5.30;99.90
14555;DHT22;7364;50.870;4.722;2023-03-03T10:13:35;5.30;99.90
14555;DHT22;7364;50.870;4.722;2023-03-03T10:16:27;5.00;99.90
14555;DHT22;7364;50.870;4.722;2023-03-03T10:19:01;5.30;99.90
14555;DHT22;7364;50.870;4.722;2023-03-03T10:21:33;5.50;99.90
14555;DHT22;7364;50.870;4.722;2023-03-03T10:24:13;5.90;99.90
14555;DHT22;7364;50.870;4.722;2023-03-03T10:27:04;6.10;99.90
14555;DHT22;7364;50.870;4.722;2023-03-03T10:29:43;6.20;99.90
14555;DHT22;7364;50.870;4.722;2023-03-03T10:32:33;6.20;99.90
14555;DHT22;7364;50.870;4.722;2023-03-03T10:35:29;5.90;99.90
14555;DHT22;7364;50.870;4.722;2023-03-03T10:41:18;5.50;99.90
14555;DHT22;7364;50.870;4.722;2023-03-03T10:44:04;6.00;99.90
14555;DHT22;7364;50.870;4.722;2023-03-03T10:46:45;6.00;99.90
14555;DHT22;7364;50.870;4.722;2023-03-03T10:52:31;5.90;99.90
14555;DHT22;7364;50.870;4.722;2023-03-03T10:55:35;6.00;99.90
14555;DHT22;7364;50.870;4.722;2023-03-03T11:01:06;6.00;99.90
14555;DHT22;7364;50.870;4.722;2023-03-03T11:04:04;6.10;99.90
14555;DHT22;7364;50.870;4.722;2023-03-03T11:06:39;6.30;99.90
14555;DHT22;7364;50.870;4.722;2023-03-03T11:09:22;6.60;99.90
14555;DHT22;7364;50.870;4.722;2023-03-03T11:11:54;6.30;99.90
14555;DHT22;7364;50.870;4.722;2023-03-03T11:14:26;6.50;99.90
14555;DHT22;7364;50.870;4.722;2023-03-03T11:17:04;6.60;99.90
14555;DHT22;7364;50.870;4.722;2023-03-03T11:19:48;6.20;99.90
14555;DHT22;7364;50.870;4.722;2023-03-03T11:22:38;6.40;99.90
14555;DHT22;7364;50.870;4.722;2023-03-03T11:25:22;6.70;99.90
14555;DHT22;7364;50.870;4.722;2023-03-03T11:28:14;6.70;99.90
14555;DHT22;7364;50.870;4.722;2023-03-03T11:30:59;6.30;99.90
14555;DHT22;7364;50.870;4.722;2023-03-03T11:33:39;6.30;99.90
14555;DHT22;7364;50.870;4.722;2023-03-03T11:36:16;6.00;99.90
14555;DHT22;7364;50.870;4.722;2023-03-03T11:38:50;5.90;99.90
14555;DHT22;7364;50.870;4.722;2023-03-03T11:41:29;6.20;99.90
14555;DHT22;7364;50.870;4.722;2023-03-03T11:44:10;6.50;99.90
14555;DHT22;7364;50.870;4.722;2023-03-03T11:46:45;6.60;99.90
14555;DHT22;7364;50.870;4.722;2023-03-03T11:49:18;7.00;99.90
14555;DHT22;7364;50.870;4.722;2023-03-03T11:51:55;7.50;99.90
14555;DHT22;7364;50.870;4.722;2023-03-03T11:54:31;8.00;99.90
14555;DHT22;7364;50.870;4.722;2023-03-03T11:57:13;8.30;99.90
14555;DHT22;7364;50.870;4.722;2023-03-03T12:00:07;8.90;99.90
14555;DHT22;7364;50.870;4.722;2023-03-03T12:03:07;8.80;99.90
14555;DHT22;7364;50.870;4.722;2023-03-03T12:05:49;9.30;99.90
14555;DHT22;7364;50.870;4.722;2023-03-03T12:08:34;9.50;99.90
14555;DHT22;7364;50.870;4.722;2023-03-03T12:11:07;9.90;99.70
14555;DHT22;7364;50.870;4.722;2023-03-03T12:13:52;9.50;99.90
14555;DHT22;7364;50.870;4.722;2023-03-03T12:16:36;9.90;99.50
14555;DHT22;7364;50.870;4.722;2023-03-03T12:19:27;9.80;99.40
14555;DHT22;7364;50.870;4.722;2023-03-03T12:22:08;10.10;98.80
14555;DHT22;7364;50.870;4.722;2023-03-03T12:25:01;10.20;98.20
14555;DHT22;7364;50.870;4.722;2023-03-03T12:27:38;10.20;97.60
14555;DHT22;7364;50.870;4.722;2023-03-03T12:30:20;10.20;99.00
14555;DHT22;7364;50.870;4.722;2023-03-03T12:33:14;11.00;97.80
14555;DHT22;7364;50.870;4.722;2023-03-03T12:35:50;11.20;96.60
14555;DHT22;7364;50.870;4.722;2023-03-03T12:38:26;11.70;95.90
14555;DHT22;7364;50.870;4.722;2023-03-03T12:41:04;12.00;95.30
14555;DHT22;7364;50.870;4.722;2023-03-03T12:43:45;12.30;94.60
14555;DHT22;7364;50.870;4.722;2023-03-03T12:46:23;12.60;94.50
14555;DHT22;7364;50.870;4.722;2023-03-03T12:48:52;12.60;93.60
14555;DHT22;7364;50.870;4.722;2023-03-03T12:51:30;12.60;94.00
14555;DHT22;7364;50.870;4.722;2023-03-03T12:54:35;13.20;92.80
14555;DHT22;7364;50.870;4.722;2023-03-03T12:57:15;12.10;93.50
14555;DHT22;7364;50.870;4.722;2023-03-03T12:59:52;11.60;94.10
14555;DHT22;7364;50.870;4.722;2023-03-03T13:02:38;12.60;93.40
14555;DHT22;7364;50.870;4.722;2023-03-03T13:05:18;12.90;93.10
14555;DHT22;7364;50.870;4.722;2023-03-03T13:07:52;13.80;92.50
14555;DHT22;7364;50.870;4.722;2023-03-03T13:10:29;14.60;90.90
14555;DHT22;7364;50.870;4.722;2023-03-03T13:13:00;15.20;90.00
14555;DHT22;7364;50.870;4.722;2023-03-03T13:15:30;16.40;86.20
14555;DHT22;7364;50.870;4.722;2023-03-03T13:18:22;16.90;82.50
14555;DHT22;7364;50.870;4.722;2023-03-03T13:20:56;16.90;81.80
14555;DHT22;7364;50.870;4.722;2023-03-03T13:23:38;17.10;80.90
14555;DHT22;7364;50.870;4.722;2023-03-03T13:26:10;18.60;77.60
14555;DHT22;7364;50.870;4.722;2023-03-03T13:28:55;19.60;73.80
14555;DHT22;7364;50.870;4.722;2023-03-03T13:31:28;20.00;69.60
14555;DHT22;7364;50.870;4.722;2023-03-03T13:34:00;21.20;66.40
14555;DHT22;7364;50.870;4.722;2023-03-03T13:36:33;21.90;63.20
14555;DHT22;7364;50.870;4.722;2023-03-03T13:39:07;22.90;60.60
14555;DHT22;7364;50.870;4.722;2023-03-03T13:41:43;23.20;57.70
14555;DHT22;7364;50.870;4.722;2023-03-03T13:44:18;23.60;56.30
14555;DHT22;7364;50.870;4.722;2023-03-03T13:46:58;23.80;55.10
14555;DHT22;7364;50.870;4.722;2023-03-03T13:49:53;24.20;53.60
14555;DHT22;7364;50.870;4.722;2023-03-03T13:52:23;23.80;54.70
14555;DHT22;7364;50.870;4.722;2023-03-03T13:55:07;23.90;53.10
14555;DHT22;7364;50.870;4.722;2023-03-03T13:57:43;22.80;54.80
14555;DHT22;7364;50.870;4.722;2023-03-03T14:00:22;23.60;54.70
14555;DHT22;7364;50.870;4.722;2023-03-03T14:03:25;21.80;54.20
14555;DHT22;7364;50.870;4.722;2023-03-03T14:06:02;19.40;57.70
14555;DHT22;7364;50.870;4.722;2023-03-03T14:08:52;20.20;57.80
14555;DHT22;7364;50.870;4.722;2023-03-03T14:11:24;20.50;56.30
14555;DHT22;7364;50.870;4.722;2023-03-03T14:14:02;19.40;57.00
14555;DHT22;7364;50.870;4.722;2023-03-03T14:16:42;18.40;58.80
14555;DHT22;7364;50.870;4.722;2023-03-03T14:19:16;19.00;60.00
14555;DHT22;7364;50.870;4.722;2023-03-03T14:21:51;19.90;57.80
14555;DHT22;7364;50.870;4.722;2023-03-03T14:24:21;19.40;58.90
14555;DHT22;7364;50.870;4.722;2023-03-03T14:26:51;21.60;57.10
14555;DHT22;7364;50.870;4.722;2023-03-03T14:29:22;23.10;54.30
14555;DHT22;7364;50.870;4.722;2023-03-03T14:31:59;24.20;52.90
14555;DHT22;7364;50.870;4.722;2023-03-03T14:34:35;24.60;51.30
14555;DHT22;7364;50.870;4.722;2023-03-03T14:37:26;23.70;51.10
14555;DHT22;7364;50.870;4.722;2023-03-03T14:40:06;21.10;53.70
14555;DHT22;7364;50.870;4.722;2023-03-03T14:42:36;19.30;55.80
14555;DHT22;7364;50.870;4.722;2023-03-03T14:45:22;17.90;58.20
14555;DHT22;7364;50.870;4.722;2023-03-03T14:47:55;16.90;61.00
14555;DHT22;7364;50.870;4.722;2023-03-03T14:50:35;14.80;64.30
14555;DHT22;7364;50.870;4.722;2023-03-03T14:53:11;13.70;68.20
14555;DHT22;7364;50.870;4.722;2023-03-03T14:55:42;12.70;71.20
14555;DHT22;7364;50.870;4.722;2023-03-03T14:58:30;12.80;72.10
14555;DHT22;7364;50.870;4.722;2023-03-03T15:01:16;12.70;72.90
14555;DHT22;7364;50.870;4.722;2023-03-03T15:03:49;12.50;73.70
14555;DHT22;7364;50.870;4.722;2023-03-03T15:06:33;12.30;75.00
14555;DHT22;7364;50.870;4.722;2023-03-03T15:12:18;12.40;75.90
14555;DHT22;7364;50.870;4.722;2023-03-03T15:14:47;12.60;75.30
14555;DHT22;7364;50.870;4.722;2023-03-03T15:17:23;12.50;75.20
14555;DHT22;7364;50.870;4.722;2023-03-03T15:20:19;11.90;76.60
14555;DHT22;7364;50.870;4.722;2023-03-03T15:23:04;11.70;79.30
14555;DHT22;7364;50.870;4.722;2023-03-03T15:25:37;11.40;79.60
14555;DHT22;7364;50.870;4.722;2023-03-03T15:28:20;11.40;79.80
14555;DHT22;7364;50.870;4.722;2023-03-03T15:30:52;11.20;81.10
14555;DHT22;7364;50.870;4.722;2023-03-03T15:33:27;11.00;81.10
14555;DHT22;7364;50.870;4.722;2023-03-03T15:36:02;11.00;81.90
14555;DHT22;7364;50.870;4.722;2023-03-03T15:38:41;10.90;83.10
14555;DHT22;7364;50.870;4.722;2023-03-03T15:41:19;10.70;83.60
14555;DHT22;7364;50.870;4.722;2023-03-03T15:44:00;10.90;83.60
14555;DHT22;7364;50.870;4.722;2023-03-03T15:46:39;10.90;83.50
14555;DHT22;7364;50.870;4.722;2023-03-03T15:49:20;10.90;84.40
14555;DHT22;7364;50.870;4.722;2023-03-03T15:52:08;11.00;84.30
14555;DHT22;7364;50.870;4.722;2023-03-03T15:54:51;11.10;84.30
14555;DHT22;7364;50.870;4.722;2023-03-03T15:57:30;11.10;85.00
14555;DHT22;7364;50.870;4.722;2023-03-03T16:02:56;10.70;85.50
14555;DHT22;7364;50.870;4.722;2023-03-03T16:05:28;10.40;86.70
14555;DHT22;7364;50.870;4.722;2023-03-03T16:08:01;10.10;87.40
14555;DHT22;7364;50.870;4.722;2023-03-03T16:10:38;10.00;88.60
14555;DHT22;7364;50.870;4.722;2023-03-03T16:13:29;9.90;90.50
14555;DHT22;7364;50.870;4.722;2023-03-03T16:16:12;9.70;90.50
14555;DHT22;7364;50.870;4.722;2023-03-03T16:18:52;9.80;90.70
14555;DHT22;7364;50.870;4.722;2023-03-03T16:21:29;10.00;90.00
14555;DHT22;7364;50.870;4.722;2023-03-03T16:24:12;10.20;90.10
14555;DHT22;7364;50.870;4.722;2023-03-03T16:26:49;10.20;90.00
14555;DHT22;7364;50.870;4.722;2023-03-03T16:29:36;9.90;90.70
14555;DHT22;7364;50.870;4.722;2023-03-03T16:32:11;10.00;90.60
14555;DHT22;7364;50.870;4.722;2023-03-03T16:34:46;10.10;90.30
14555;DHT22;7364;50.870;4.722;2023-03-03T16:37:26;10.30;89.70
14555;DHT22;7364;50.870;4.722;2023-03-03T16:40:01;10.10;90.30
14555;DHT22;7364;50.870;4.722;2023-03-03T16:42:29;9.90;91.20
14555;DHT22;7364;50.870;4.722;2023-03-03T16:48:02;9.60;91.70
14555;DHT22;7364;50.870;4.722;2023-03-03T16:50:40;9.50;92.10
14555;DHT22;7364;50.870;4.722;2023-03-03T16:53:39;9.30;92.40
14555;DHT22;7364;50.870;4.722;2023-03-03T16:56:11;9.30;92.50
14555;DHT22;7364;50.870;4.722;2023-03-03T16:58:51;9.40;92.50
14555;DHT22;7364;50.870;4.722;2023-03-03T17:01:31;9.50;92.40
14555;DHT22;7364;50.870;4.722;2023-03-03T17:04:10;9.40;92.40
14555;DHT22;7364;50.870;4.722;2023-03-03T17:06:43;9.30;92.60